Time;durP1;ratioP1;P1;durP2;ratioP2;P2;SDS_P1;SDS_P2;PMS_P1;PMS_P2;Temp;Humidity;BMP_temperature;BMP_pressure;BME280_temperature;BME280_humidity;BME280_pressure;Samples;Min_cycle;Max_cycle;Signal;HPM_P1;HPM_P2
2022/03/15 00:00:13;;;;;;;12.55;5.00;;;4.60;94.70;;;;;;6279615;22;20008;-66
2022/03/15 00:02:39;;;;;;;9.85;3.95;;;4.60;94.90;;;;;;6279353;22;20069;-64
2022/03/15 00:05:05;;;;;;;11.10;4.30;;;4.50;95.00;;;;;;6279878;22;20365;-64
2022/03/15 00:07:31;;;;;;;9.68;3.65;;;4.40;95.20;;;;;;6279659;22;20273;-65
2022/03/15 00:09:56;;;;;;;11.68;4.15;;;4.50;95.30;;;;;;6278730;22;20000;-65
2022/03/15 00:12:23;;;;;;;10.75;4.22;;;4.60;95.20;;;;;;6278535;22;20395;-65
2022/03/15 00:14:49;;;;;;;11.18;4.47;;;4.70;94.50;;;;;;6251576;22;20026;-65
2022/03/15 00:17:15;;;;;;;6.97;3.97;;;4.70;94.20;;;;;;6278747;22;20004;-65
2022/03/15 00:19:40;;;;;;;9.07;3.38;;;4.60;94.40;;;;;;6278560;22;20004;-65
2022/03/15 00:22:07;;;;;;;9.68;3.15;;;4.50;94.90;;;;;;6278911;22;19999;-65
2022/03/15 00:24:33;;;;;;;9.32;3.20;;;4.50;95.20;;;;;;6277454;22;20265;-65
2022/03/15 00:27:00;;;;;;;9.05;3.10;;;4.40;95.30;;;;;;6278170;22;20000;-65
2022/03/15 00:29:26;;;;;;;8.40;3.53;;;4.30;95.50;;;;;;6278563;22;20023;-64
2022/03/15 00:31:51;;;;;;;11.27;3.88;;;4.50;95.40;;;;;;6278406;22;20000;-65
2022/03/15 00:34:17;;;;;;;11.05;4.05;;;4.60;94.90;;;;;;6278669;22;20375;-65
2022/03/15 00:36:43;;;;;;;9.98;3.10;;;4.70;94.50;;;;;;6278501;22;20069;-65
2022/03/15 00:39:09;;;;;;;7.82;3.63;;;4.70;94.30;;;;;;6277222;22;20308;-64
2022/03/15 00:41:34;;;;;;;8.45;2.90;;;4.50;94.90;;;;;;6278492;22;20004;-65
2022/03/15 00:44:00;;;;;;;7.25;3.53;;;4.40;95.20;;;;;;6278400;22;20019;-64
2022/03/15 00:46:27;;;;;;;5.68;2.47;;;4.30;95.70;;;;;;6278213;22;20083;-66
2022/03/15 00:48:55;;;;;;;8.38;3.15;;;4.20;95.90;;;;;;6278662;22;19996;-65
2022/03/15 00:51:21;;;;;;;7.00;2.85;;;4.10;96.10;;;;;;6278529;22;20011;-65
2022/03/15 00:53:46;;;;;;;10.30;3.25;;;4.10;96.10;;;;;;6278594;22;20000;-65
2022/03/15 00:56:12;;;;;;;9.52;2.92;;;4.10;96.20;;;;;;6277926;22;20046;-64
2022/03/15 00:58:37;;;;;;;8.10;3.10;;;4.10;96.30;;;;;;6278858;22;20088;-65
2022/03/15 01:01:03;;;;;;;9.10;3.20;;;4.20;96.20;;;;;;6279583;22;20053;-64
2022/03/15 01:03:29;;;;;;;9.07;3.50;;;4.30;95.50;;;;;;6279464;22;20113;-64
2022/03/15 01:05:54;;;;;;;9.38;3.80;;;4.40;95.20;;;;;;6279166;22;20014;-65
2022/03/15 01:08:20;;;;;;;9.77;3.40;;;4.50;94.80;;;;;;6279114;22;20419;-65
2022/03/15 01:10:45;;;;;;;8.15;3.10;;;4.70;94.40;;;;;;6277538;22;20053;-65
2022/03/15 01:13:11;;;;;;;8.77;3.00;;;4.70;94.20;;;;;;6279574;22;20004;-65
2022/03/15 01:15:43;;;;;;;7.35;2.75;;;4.80;94.00;;;;;;6279034;22;20000;-65
2022/03/15 01:18:09;;;;;;;6.75;2.50;;;4.70;94.20;;;;;;6279691;22;20003;-65
2022/03/15 01:20:38;;;;;;;6.28;2.63;;;4.50;94.70;;;;;;6279109;22;20067;-65
2022/03/15 01:23:03;;;;;;;9.18;3.63;;;4.40;94.90;;;;;;6279301;22;20007;-64
2022/03/15 01:25:30;;;;;;;8.07;3.50;;;4.40;95.00;;;;;;6277577;22;20004;-65
2022/03/15 01:28:01;;;;;;;7.35;3.10;;;4.30;95.30;;;;;;6279181;22;20031;-65
2022/03/15 01:30:29;;;;;;;8.50;3.20;;;4.30;95.70;;;;;;6279297;22;20321;-65
2022/03/15 01:32:55;;;;;;;8.90;3.22;;;4.30;95.50;;;;;;6279108;22;20054;-66
2022/03/15 01:35:20;;;;;;;7.90;3.08;;;4.20;95.50;;;;;;6279093;22;20003;-66
2022/03/15 01:37:46;;;;;;;9.18;3.15;;;4.10;96.10;;;;;;6278952;22;20297;-65
2022/03/15 01:40:12;;;;;;;8.23;3.13;;;4.10;96.20;;;;;;6277173;22;20004;-66
2022/03/15 01:42:38;;;;;;;9.43;3.25;;;4.20;96.20;;;;;;6278982;22;20012;-64
2022/03/15 01:45:05;;;;;;;8.07;3.10;;;4.20;96.20;;;;;;6279301;22;20004;-64
2022/03/15 01:47:34;;;;;;;11.10;3.55;;;4.30;95.90;;;;;;6279972;22;20027;-64
2022/03/15 01:50:03;;;;;;;7.43;2.90;;;4.30;95.80;;;;;;6281412;22;19995;-64
2022/03/15 01:52:29;;;;;;;8.70;2.75;;;4.20;96.20;;;;;;6280910;22;20000;-64
2022/03/15 01:54:55;;;;;;;8.40;3.17;;;4.10;96.40;;;;;;6279554;22;20321;-66
2022/03/15 01:57:23;;;;;;;7.72;2.80;;;4.10;96.40;;;;;;6280711;22;20010;-66
2022/03/15 01:59:49;;;;;;;9.00;3.00;;;4.10;96.30;;;;;;6280095;22;20421;-66
2022/03/15 02:02:17;;;;;;;7.07;2.88;;;4.00;96.60;;;;;;6254227;22;20031;-66
2022/03/15 02:04:43;;;;;;;9.57;3.13;;;3.90;96.80;;;;;;6280835;22;20085;-65
2022/03/15 02:07:11;;;;;;;6.90;2.80;;;3.90;97.00;;;;;;6280644;22;20016;-66
2022/03/15 02:09:41;;;;;;;7.80;2.92;;;3.90;97.10;;;;;;6279254;22;20102;-65
2022/03/15 02:12:08;;;;;;;8.10;2.85;;;3.90;97.00;;;;;;6280514;22;20261;-66
2022/03/15 02:14:34;;;;;;;6.95;2.67;;;3.90;97.10;;;;;;6280932;22;19996;-67
2022/03/15 02:17:03;;;;;;;10.73;2.90;;;3.80;97.10;;;;;;6280784;22;20357;-65
2022/03/15 02:19:29;;;;;;;8.15;2.90;;;3.70;97.10;;;;;;6280788;22;20075;-65
2022/03/15 02:21:57;;;;;;;10.73;3.50;;;3.70;97.20;;;;;;6280942;22;20085;-65
2022/03/15 02:24:23;;;;;;;8.68;3.63;;;3.60;97.50;;;;;;6279401;22;20126;-65
2022/03/15 02:26:51;;;;;;;9.38;4.40;;;3.60;97.50;;;;;;6280511;22;20006;-66
2022/03/15 02:29:17;;;;;;;9.90;5.50;;;3.60;97.50;;;;;;6280876;22;20003;-65
2022/03/15 02:31:43;;;;;;;12.18;5.10;;;3.70;97.70;;;;;;6280660;22;20434;-65
2022/03/15 02:34:09;;;;;;;33.13;23.40;;;3.80;97.70;;;;;;6280225;22;20000;-65
2022/03/15 02:36:35;;;;;;;48.67;24.95;;;3.90;97.50;;;;;;6279867;22;20029;-64
2022/03/15 02:39:00;;;;;;;20.70;10.45;;;3.90;97.50;;;;;;6279328;22;20031;-65
2022/03/15 02:41:27;;;;;;;16.92;7.47;;;3.90;97.40;;;;;;6280380;22;20073;-65
2022/03/15 02:43:56;;;;;;;18.10;6.90;;;3.80;97.30;;;;;;6280549;22;20004;-65
2022/03/15 02:46:26;;;;;;;11.30;5.03;;;3.80;97.50;;;;;;6280424;22;20057;-64
2022/03/15 02:48:52;;;;;;;9.38;4.10;;;3.70;97.60;;;;;;6280241;22;19996;-66
2022/03/15 02:51:18;;;;;;;9.93;4.53;;;3.70;97.70;;;;;;6280267;22;20071;-66
2022/03/15 02:53:44;;;;;;;11.98;4.93;;;3.60;97.70;;;;;;6253341;22;19996;-65
2022/03/15 02:56:12;;;;;;;11.80;5.10;;;3.70;97.80;;;;;;6279139;22;20003;-65
2022/03/15 02:58:41;;;;;;;11.77;5.60;;;3.70;97.80;;;;;;6280302;22;20307;-65
2022/03/15 03:01:08;;;;;;;10.18;5.45;;;3.80;97.80;;;;;;6279483;22;20028;-66
2022/03/15 03:03:34;;;;;;;12.80;5.18;;;3.80;97.60;;;;;;6279945;22;20000;-65
2022/03/15 03:06:00;;;;;;;8.65;4.30;;;3.80;97.70;;;;;;6280019;22;20020;-66
2022/03/15 03:08:27;;;;;;;11.30;4.80;;;3.70;97.80;;;;;;6279367;22;20069;-66
2022/03/15 03:10:58;;;;;;;12.65;5.28;;;3.70;97.90;;;;;;6279042;22;20000;-65
2022/03/15 03:13:27;;;;;;;11.07;5.22;;;3.60;97.90;;;;;;6280213;22;20000;-67
2022/03/15 03:15:57;;;;;;;8.02;4.30;;;3.60;97.90;;;;;;6279751;22;20004;-66
2022/03/15 03:18:28;;;;;;;8.73;4.47;;;3.50;97.90;;;;;;6280190;22;20011;-66
2022/03/15 03:20:54;;;;;;;14.50;4.72;;;3.50;98.00;;;;;;6280195;22;20247;-66
2022/03/15 03:23:20;;;;;;;11.70;4.97;;;3.60;98.00;;;;;;6279900;22;20004;-65
2022/03/15 03:25:46;;;;;;;10.52;4.75;;;3.60;98.00;;;;;;6278775;22;20011;-64
2022/03/15 03:28:13;;;;;;;9.32;4.90;;;3.60;98.00;;;;;;6279976;22;20004;-64
2022/03/15 03:30:46;;;;;;;9.52;5.00;;;3.60;98.00;;;;;;6252268;22;19999;-65
2022/03/15 03:33:13;;;;;;;10.60;5.03;;;3.60;98.00;;;;;;6279913;22;19996;-64
2022/03/15 03:35:39;;;;;;;11.20;4.30;;;3.70;98.00;;;;;;6280018;22;19996;-65
2022/03/15 03:38:05;;;;;;;8.85;4.43;;;3.70;98.00;;;;;;6279884;22;20007;-65
2022/03/15 03:40:32;;;;;;;9.77;4.40;;;3.70;98.00;;;;;;6278883;22;20083;-65
2022/03/15 03:42:58;;;;;;;6.88;3.88;;;3.70;98.00;;;;;;6280457;22;20000;-66
2022/03/15 03:45:24;;;;;;;10.75;5.10;;;3.70;97.90;;;;;;6279897;22;20312;-64
2022/03/15 03:47:52;;;;;;;12.50;4.47;;;3.60;98.00;;;;;;6279423;22;20301;-64
2022/03/15 03:50:18;;;;;;;9.68;4.03;;;3.60;97.90;;;;;;6279800;22;20003;-66
2022/03/15 03:52:44;;;;;;;10.27;4.82;;;3.50;98.00;;;;;;6279876;22;20000;-66
2022/03/15 03:55:11;;;;;;;14.23;5.40;;;3.50;98.00;;;;;;6278304;22;20092;-65
2022/03/15 03:57:37;;;;;;;12.40;5.07;;;3.50;98.00;;;;;;6279603;22;20087;-65
2022/03/15 04:00:04;;;;;;;9.68;4.78;;;3.50;98.00;;;;;;6279309;22;20038;-65
2022/03/15 04:02:30;;;;;;;12.63;5.63;;;3.50;98.00;;;;;;6280185;22;20030;-64
2022/03/15 04:04:56;;;;;;;12.20;5.28;;;3.50;98.00;;;;;;6279615;22;20003;-64
2022/03/15 04:07:21;;;;;;;11.93;5.40;;;3.50;98.00;;;;;;6279513;22;20400;-66
2022/03/15 04:09:47;;;;;;;9.90;4.65;;;3.60;98.00;;;;;;6278704;22;20000;-65
2022/03/15 04:12:13;;;;;;;12.25;4.95;;;3.60;98.00;;;;;;6279656;22;20022;-65
2022/03/15 04:14:39;;;;;;;10.52;4.90;;;3.70;98.00;;;;;;6279363;22;20000;-65
2022/03/15 04:17:07;;;;;;;7.75;3.75;;;3.60;97.90;;;;;;6279523;22;20014;-65
2022/03/15 04:19:32;;;;;;;9.52;3.97;;;3.60;97.90;;;;;;6279765;22;20052;-67
2022/03/15 04:22:01;;;;;;;7.95;4.25;;;3.40;97.90;;;;;;6279769;22;20373;-65
2022/03/15 04:24:26;;;;;;;9.68;4.75;;;3.30;98.00;;;;;;6278214;22;20007;-65
2022/03/15 04:26:52;;;;;;;11.48;4.40;;;3.30;98.00;;;;;;6279668;22;20306;-65
2022/03/15 04:29:18;;;;;;;9.23;4.57;;;3.20;98.00;;;;;;6278763;22;20004;-65
2022/03/15 04:31:44;;;;;;;9.43;4.25;;;3.10;98.00;;;;;;6278685;22;20022;-66
2022/03/15 04:34:10;;;;;;;8.30;3.83;;;3.10;98.00;;;;;;6279217;22;19996;-66
2022/03/15 04:36:40;;;;;;;9.75;3.92;;;3.10;98.00;;;;;;6279408;22;20008;-66
2022/03/15 04:39:06;;;;;;;7.60;3.80;;;3.10;98.00;;;;;;6277935;22;20660;-64
2022/03/15 04:41:32;;;;;;;11.93;4.75;;;3.20;98.00;;;;;;6279577;22;20027;-64
2022/03/15 04:43:58;;;;;;;9.57;4.85;;;3.20;98.00;;;;;;6279453;22;20031;-63
2022/03/15 04:46:24;;;;;;;8.02;4.00;;;3.30;98.00;;;;;;6279092;22;19999;-64
2022/03/15 04:48:50;;;;;;;8.82;4.18;;;3.30;98.00;;;;;;6278326;22;20261;-66
2022/03/15 04:51:15;;;;;;;12.32;5.85;;;3.30;98.00;;;;;;6279475;22;20081;-65
2022/03/15 04:53:43;;;;;;;9.13;4.20;;;3.40;98.00;;;;;;6252231;22;20397;-67
2022/03/15 04:56:09;;;;;;;7.53;3.78;;;3.50;98.00;;;;;;6276688;22;19995;-66
2022/03/15 04:58:35;;;;;;;10.55;4.18;;;3.50;98.00;;;;;;6278938;22;20015;-66
2022/03/15 05:01:01;;;;;;;10.13;4.13;;;3.60;98.00;;;;;;6278824;22;19991;-65
2022/03/15 05:03:26;;;;;;;10.25;4.00;;;3.60;97.90;;;;;;6279562;22;20000;-65
2022/03/15 05:05:52;;;;;;;9.15;4.05;;;3.60;98.00;;;;;;6278970;22;20043;-65
2022/03/15 05:08:18;;;;;;;9.52;4.30;;;3.70;98.00;;;;;;6279579;22;20004;-65
2022/03/15 05:13:28;;;;;;;8.50;3.78;;;3.70;98.00;;;;;;6279698;22;20269;-65
2022/03/15 05:15:54;;;;;;;8.07;3.95;;;3.70;97.80;;;;;;6279313;22;19996;-66
2022/03/15 05:18:31;;;;;;;8.63;3.83;;;3.80;97.90;;;;;;6279708;22;20007;-64
2022/03/15 05:20:57;;;;;;;9.73;4.85;;;3.80;97.90;;;;;;6279007;22;20011;-65
2022/03/15 05:23:22;;;;;;;8.15;4.10;;;3.80;97.90;;;;;;6280711;22;19999;-66
2022/03/15 05:25:48;;;;;;;9.23;3.70;;;3.80;97.80;;;;;;6279726;22;20004;-64
2022/03/15 05:28:14;;;;;;;8.40;3.70;;;3.70;97.80;;;;;;6281325;22;20090;-66
2022/03/15 05:30:39;;;;;;;10.23;3.83;;;3.70;97.80;;;;;;6279854;22;20011;-65
2022/03/15 05:33:05;;;;;;;7.15;3.63;;;3.70;97.70;;;;;;6280752;22;20004;-66
2022/03/15 05:35:31;;;;;;;6.97;3.83;;;3.80;97.80;;;;;;6281005;22;20027;-65
2022/03/15 05:37:56;;;;;;;9.93;3.60;;;3.80;97.70;;;;;;6280849;22;20010;-65
2022/03/15 05:40:22;;;;;;;7.03;3.72;;;3.90;97.60;;;;;;6279990;22;20010;-66
2022/03/15 05:42:48;;;;;;;7.93;3.78;;;4.00;97.40;;;;;;6281484;22;20082;-65
2022/03/15 05:45:13;;;;;;;8.57;3.78;;;4.10;96.90;;;;;;6281129;22;20004;-68
2022/03/15 05:47:39;;;;;;;8.38;3.90;;;4.10;97.00;;;;;;6281018;22;20098;-65
2022/03/15 05:50:06;;;;;;;7.50;4.10;;;4.10;97.00;;;;;;6280925;22;20011;-65
2022/03/15 05:52:31;;;;;;;7.88;4.32;;;4.20;96.40;;;;;;6281368;22;20006;-65
2022/03/15 05:54:57;;;;;;;8.95;4.53;;;4.40;95.60;;;;;;6279496;22;20003;-65
2022/03/15 05:57:23;;;;;;;7.95;3.63;;;4.50;95.70;;;;;;6280392;22;20618;-66
2022/03/15 05:59:49;;;;;;;8.13;3.83;;;4.70;93.80;;;;;;6281070;22;20007;-65
2022/03/15 06:02:15;;;;;;;10.10;3.75;;;4.80;94.00;;;;;;6280523;22;20270;-65
2022/03/15 06:04:40;;;;;;;8.13;3.65;;;4.80;94.90;;;;;;6280870;22;19999;-66
2022/03/15 06:07:06;;;;;;;6.57;3.83;;;4.90;94.10;;;;;;6280494;22;20023;-65
2022/03/15 06:09:32;;;;;;;31.20;18.35;;;4.90;94.40;;;;;;6278788;22;20349;-65
2022/03/15 06:11:58;;;;;;;13.95;7.30;;;4.90;94.40;;;;;;6280598;22;19996;-65
2022/03/15 06:14:24;;;;;;;8.43;4.78;;;5.00;94.00;;;;;;6281144;22;20031;-64
2022/03/15 06:16:50;;;;;;;8.70;4.28;;;5.10;93.40;;;;;;6280502;22;20017;-65
2022/03/15 06:19:17;;;;;;;9.75;4.30;;;5.40;91.60;;;;;;6280242;22;20073;-66
2022/03/15 06:21:44;;;;;;;9.82;4.10;;;5.60;90.70;;;;;;6280618;22;20007;-66
2022/03/15 06:24:10;;;;;;;8.65;4.55;;;5.80;90.00;;;;;;6279412;22;20264;-64
2022/03/15 06:26:37;;;;;;;11.50;7.53;;;5.90;90.00;;;;;;6254387;22;20106;-66
2022/03/15 06:29:03;;;;;;;13.15;7.25;;;6.00;88.80;;;;;;6280852;22;20004;-65
2022/03/15 06:31:33;;;;;;;8.07;3.85;;;6.20;88.50;;;;;;6280831;22;20030;-65
2022/03/15 06:33:59;;;;;;;17.50;6.78;;;6.20;88.70;;;;;;6280653;22;20004;-65
2022/03/15 06:36:25;;;;;;;9.43;4.03;;;6.20;89.30;;;;;;6279719;22;20323;-65
2022/03/15 06:38:51;;;;;;;9.15;5.07;;;6.20;88.60;;;;;;6279882;22;20000;-65
2022/03/15 06:41:17;;;;;;;11.48;5.85;;;6.40;87.50;;;;;;6280249;22;20357;-65
2022/03/15 06:43:43;;;;;;;14.38;6.95;;;6.70;86.10;;;;;;6280747;22;20313;-66
2022/03/15 06:46:09;;;;;;;11.52;6.25;;;7.10;83.40;;;;;;6280024;22;20007;-66
2022/03/15 06:48:38;;;;;;;10.10;5.05;;;7.40;83.80;;;;;;6279520;22;20090;-65
2022/03/15 06:51:04;;;;;;;9.05;3.83;;;7.70;81.60;;;;;;6279681;22;20004;-65
2022/03/15 06:53:30;;;;;;;6.70;2.85;;;7.90;81.10;;;;;;6279259;22;20457;-65
2022/03/15 06:55:56;;;;;;;6.95;3.30;;;8.00;80.30;;;;;;6279524;22;19995;-66
2022/03/15 06:58:21;;;;;;;6.47;3.15;;;8.10;80.70;;;;;;6280898;22;20004;-65
2022/03/15 07:00:50;;;;;;;5.20;2.90;;;8.20;81.00;;;;;;6280455;22;20004;-65
2022/03/15 07:03:16;;;;;;;6.15;2.97;;;8.10;80.90;;;;;;6280470;22;20422;-65
2022/03/15 07:05:43;;;;;;;8.50;3.20;;;8.20;79.70;;;;;;6280382;22;20020;-65
2022/03/15 07:08:09;;;;;;;8.52;3.00;;;8.30;78.70;;;;;;6280865;22;20004;-65
2022/03/15 07:10:35;;;;;;;6.63;2.90;;;8.50;78.40;;;;;;6278818;22;20003;-65
2022/03/15 07:13:03;;;;;;;5.43;2.72;;;8.50;79.20;;;;;;6281008;22;20266;-65
2022/03/15 07:15:29;;;;;;;6.38;3.15;;;8.50;80.00;;;;;;6280740;22;20273;-67
2022/03/15 07:17:57;;;;;;;8.07;4.22;;;8.50;78.70;;;;;;6280430;22;20004;-66
2022/03/15 07:20:24;;;;;;;15.93;8.60;;;8.50;80.90;;;;;;6280613;22;20269;-66
2022/03/15 07:22:51;;;;;;;17.40;11.65;;;8.40;82.00;;;;;;6280158;22;20083;-65
2022/03/15 07:25:19;;;;;;;16.15;11.45;;;8.20;82.50;;;;;;6277833;22;20058;-64
2022/03/15 07:27:45;;;;;;;14.07;7.30;;;8.10;83.70;;;;;;6279074;22;20316;-64
2022/03/15 07:30:11;;;;;;;8.82;5.47;;;8.10;84.90;;;;;;6279374;22;20010;-63
2022/03/15 07:32:37;;;;;;;5.63;2.95;;;8.10;85.00;;;;;;6279345;22;19995;-64
2022/03/15 07:35:03;;;;;;;9.13;4.18;;;8.30;84.40;;;;;;6278512;22;20007;-65
2022/03/15 07:37:29;;;;;;;11.73;5.60;;;8.50;84.40;;;;;;6279478;22;20265;-64
2022/03/15 07:39:55;;;;;;;9.25;5.30;;;8.60;84.40;;;;;;6279053;22;20285;-64
2022/03/15 07:42:23;;;;;;;11.48;7.38;;;8.40;85.10;;;;;;6280264;22;20042;-66
2022/03/15 07:44:49;;;;;;;9.15;4.30;;;8.30;86.60;;;;;;6280017;22;20061;-67
2022/03/15 07:47:15;;;;;;;5.57;2.58;;;8.10;87.60;;;;;;6279446;22;20000;-67
2022/03/15 07:49:41;;;;;;;5.03;2.45;;;8.30;87.10;;;;;;6280082;22;20480;-68
2022/03/15 07:52:08;;;;;;;4.30;1.92;;;8.80;85.90;;;;;;6280369;22;20030;-65
2022/03/15 07:54:35;;;;;;;4.78;2.47;;;9.20;85.20;;;;;;6277244;22;20057;-65
2022/03/15 07:57:01;;;;;;;5.25;2.30;;;9.40;84.30;;;;;;6277124;22;20365;-66
2022/03/15 07:59:27;;;;;;;4.57;2.30;;;9.60;83.80;;;;;;6277782;22;20009;-65
2022/03/15 08:01:53;;;;;;;4.03;1.95;;;9.80;84.10;;;;;;6277033;22;20365;-65
2022/03/15 08:04:19;;;;;;;5.15;2.38;;;9.90;84.00;;;;;;6279694;22;20022;-66
2022/03/15 08:06:44;;;;;;;3.25;1.50;;;10.10;84.60;;;;;;6279998;22;20047;-65
2022/03/15 08:09:11;;;;;;;2.78;1.20;;;10.20;84.30;;;;;;6279051;22;20023;-65
2022/03/15 08:11:37;;;;;;;3.88;1.40;;;10.30;84.00;;;;;;6278427;22;20002;-65
2022/03/15 08:14:03;;;;;;;3.33;1.30;;;10.30;84.20;;;;;;6277640;22;20004;-66
2022/03/15 08:16:29;;;;;;;2.65;1.20;;;10.30;84.10;;;;;;6280151;22;20066;-65
2022/03/15 08:18:57;;;;;;;2.72;1.40;;;10.40;83.50;;;;;;6277852;22;20320;-64
2022/03/15 08:21:25;;;;;;;2.78;1.30;;;10.30;84.20;;;;;;6277208;22;19995;-66
2022/03/15 08:23:54;;;;;;;2.90;1.38;;;10.30;84.50;;;;;;6277301;22;20026;-66
2022/03/15 08:26:20;;;;;;;2.58;1.05;;;10.30;84.40;;;;;;6280129;22;20361;-66
2022/03/15 08:28:48;;;;;;;3.35;1.35;;;10.30;84.10;;;;;;6280228;22;20004;-66
2022/03/15 08:31:15;;;;;;;3.53;1.30;;;10.40;85.10;;;;;;6279175;22;20019;-68
2022/03/15 08:33:41;;;;;;;2.35;1.30;;;10.30;85.70;;;;;;6277070;22;20051;-66
2022/03/15 08:36:06;;;;;;;4.10;1.40;;;10.30;85.70;;;;;;6276701;22;20327;-65
2022/03/15 08:38:32;;;;;;;2.58;1.30;;;10.20;85.80;;;;;;6278445;22;20078;-66
2022/03/15 08:40:58;;;;;;;2.90;1.40;;;10.20;86.10;;;;;;6275334;22;20003;-65
2022/03/15 08:43:24;;;;;;;3.13;1.35;;;10.10;86.50;;;;;;6276786;22;20361;-66
2022/03/15 08:45:51;;;;;;;2.78;1.20;;;10.10;86.90;;;;;;6276876;22;20010;-66
2022/03/15 08:48:17;;;;;;;3.65;1.23;;;10.10;87.40;;;;;;6278983;22;20000;-67
2022/03/15 08:50:42;;;;;;;4.47;1.27;;;10.10;87.60;;;;;;6277458;22;20172;-66
2022/03/15 08:53:08;;;;;;;3.50;1.48;;;10.10;87.80;;;;;;6279327;22;20373;-65
2022/03/15 08:55:35;;;;;;;3.28;1.63;;;10.10;88.30;;;;;;6277467;22;20003;-66
2022/03/15 08:58:02;;;;;;;5.70;1.90;;;10.10;88.70;;;;;;6279029;22;20023;-66
2022/03/15 09:00:28;;;;;;;2.08;1.10;;;10.30;89.60;;;;;;6281040;22;20003;-66
2022/03/15 09:02:54;;;;;;;2.85;1.30;;;10.20;89.60;;;;;;6279025;22;20087;-66
2022/03/15 09:05:20;;;;;;;4.38;1.30;;;10.10;91.20;;;;;;6280797;22;20012;-66
2022/03/15 09:07:52;;;;;;;2.03;1.10;;;10.00;91.60;;;;;;6279284;22;20014;-65
2022/03/15 09:10:20;;;;;;;3.15;1.30;;;9.90;91.20;;;;;;6277868;22;20000;-66
2022/03/15 09:12:45;;;;;;;3.78;1.27;;;9.90;92.20;;;;;;6280532;22;20057;-66
2022/03/15 09:15:11;;;;;;;2.75;1.13;;;9.80;91.90;;;;;;6281104;22;20028;-66
2022/03/15 09:17:40;;;;;;;2.70;1.20;;;9.80;92.10;;;;;;6280554;22;20000;-66
2022/03/15 09:20:08;;;;;;;2.88;1.13;;;9.70;92.80;;;;;;6281677;22;20395;-65
2022/03/15 09:22:34;;;;;;;2.88;1.42;;;9.60;94.60;;;;;;6280192;22;20051;-67
2022/03/15 09:25:00;;;;;;;5.57;2.08;;;9.60;95.20;;;;;;6280540;22;20003;-66
2022/03/15 09:27:25;;;;;;;3.10;1.55;;;9.60;95.40;;;;;;6280441;22;20081;-65
2022/03/15 09:29:51;;;;;;;7.30;3.83;;;9.60;95.40;;;;;;6282059;22;20003;-66
2022/03/15 09:32:16;;;;;;;4.55;2.15;;;9.70;95.70;;;;;;6281464;22;20085;-66
2022/03/15 09:34:43;;;;;;;5.20;1.90;;;9.70;95.20;;;;;;6281715;22;20069;-66
2022/03/15 09:37:09;;;;;;;2.95;1.50;;;9.70;95.00;;;;;;6281494;22;20003;-66
2022/03/15 09:39:35;;;;;;;2.30;1.10;;;9.80;95.60;;;;;;6280267;22;20027;-66
2022/03/15 09:42:06;;;;;;;4.88;1.60;;;10.00;93.90;;;;;;6281706;22;20031;-67
2022/03/15 09:44:36;;;;;;;3.63;1.90;;;10.10;93.30;;;;;;6281669;22;20411;-67
2022/03/15 09:47:05;;;;;;;3.15;1.30;;;10.40;93.30;;;;;;6281634;22;20243;-66
2022/03/15 09:49:32;;;;;;;6.65;1.65;;;10.50;92.10;;;;;;6255059;22;20569;-66
2022/03/15 09:51:59;;;;;;;3.85;1.60;;;10.60;91.70;;;;;;6281696;22;20250;-66
2022/03/15 09:54:26;;;;;;;2.85;1.27;;;10.60;91.00;;;;;;6279785;22;20292;-67
2022/03/15 09:56:53;;;;;;;3.92;1.50;;;10.70;90.30;;;;;;6281001;22;20000;-67
2022/03/15 09:59:21;;;;;;;4.65;1.20;;;10.80;90.70;;;;;;6281588;22;20004;-66
2022/03/15 10:01:50;;;;;;;2.65;1.10;;;10.90;89.20;;;;;;6281990;22;20012;-65
2022/03/15 10:04:17;;;;;;;3.03;1.30;;;10.90;88.10;;;;;;6281429;22;20273;-65
2022/03/15 10:06:44;;;;;;;2.35;1.17;;;11.00;88.70;;;;;;6281047;22;20039;-65
2022/03/15 10:09:11;;;;;;;4.05;1.50;;;10.90;87.90;;;;;;6279647;22;20057;-65
2022/03/15 10:11:37;;;;;;;2.95;1.20;;;10.80;88.00;;;;;;6281725;22;20006;-65
2022/03/15 10:14:04;;;;;;;2.85;1.35;;;10.70;88.90;;;;;;6281752;22;20054;-66
2022/03/15 10:16:35;;;;;;;3.50;1.23;;;10.80;90.30;;;;;;6281403;22;20419;-66
2022/03/15 10:19:02;;;;;;;4.07;1.45;;;10.80;88.90;;;;;;6281308;22;20000;-66
2022/03/15 10:21:48;;;;;;;3.40;1.55;;;10.80;88.90;;;;;;6280903;22;20052;-66
2022/03/15 10:24:20;;;;;;;3.13;1.13;;;10.80;89.30;;;;;;6279984;22;20000;-65
2022/03/15 10:26:47;;;;;;;2.83;1.20;;;10.70;89.40;;;;;;6281214;22;20030;-65
2022/03/15 10:29:15;;;;;;;3.33;1.33;;;10.70;89.90;;;;;;6281553;22;20324;-64
2022/03/15 10:31:42;;;;;;;2.95;1.30;;;10.70;90.00;;;;;;6281571;22;20003;-64
2022/03/15 10:34:09;;;;;;;4.30;1.63;;;10.70;89.20;;;;;;6281174;22;20026;-64
2022/03/15 10:36:38;;;;;;;4.55;1.33;;;10.70;89.70;;;;;;6281255;22;20003;-64
2022/03/15 10:39:05;;;;;;;3.95;1.40;;;10.70;89.70;;;;;;6279680;22;20079;-67
2022/03/15 10:41:55;;;;;;;3.83;1.30;;;10.70;89.30;;;;;;6281274;22;20000;-67
2022/03/15 10:44:40;;;;;;;4.22;1.35;;;10.70;89.90;;;;;;6281413;22;19999;-67
2022/03/15 10:47:15;;;;;;;3.80;1.20;;;10.70;89.50;;;;;;6281074;22;20031;-67
2022/03/15 10:49:48;;;;;;;;;;;10.60;90.40;;;;;;6281795;22;20000;-67
2022/03/15 10:52:40;;;;;;;4.55;1.70;;;10.50;91.30;;;;;;6280451;22;19974;-67
2022/03/15 10:55:13;;;;;;;4.47;1.70;;;10.40;91.70;;;;;;6279579;22;20000;-66
2022/03/15 10:57:55;;;;;;;2.78;1.30;;;10.20;92.40;;;;;;6254340;22;20388;-65
2022/03/15 11:00:29;;;;;;;7.57;1.42;;;10.10;92.80;;;;;;6281041;22;20360;-66
2022/03/15 11:02:58;;;;;;;2.70;1.40;;;10.10;94.00;;;;;;6281098;22;20008;-67
2022/03/15 11:05:33;;;;;;;4.35;1.40;;;10.00;94.60;;;;;;6282432;22;20015;-67
2022/03/15 11:08:05;;;;;;;3.17;1.27;;;9.90;93.20;;;;;;6280885;22;20261;-67
2022/03/15 11:10:31;;;;;;;3.92;1.30;;;9.90;94.60;;;;;;6279633;22;19996;-66
2022/03/15 11:13:02;;;;;;;5.00;1.58;;;9.90;94.70;;;;;;6281083;22;20366;-66
2022/03/15 11:15:30;;;;;;;3.17;1.50;;;9.90;95.40;;;;;;6281059;22;20049;-67
2022/03/15 11:18:05;;;;;;;2.75;1.30;;;9.90;94.10;;;;;;6281047;22;20364;-67
2022/03/15 11:20:36;;;;;;;3.35;1.50;;;9.90;95.30;;;;;;6280337;22;19999;-65
2022/03/15 11:23:07;;;;;;;5.15;1.75;;;9.90;93.30;;;;;;6281142;22;20008;-65
2022/03/15 11:25:44;;;;;;;5.38;1.90;;;9.90;94.60;;;;;;6279357;22;20082;-66
2022/03/15 11:28:15;;;;;;;4.22;2.20;;;9.80;94.90;;;;;;6280713;22;20242;-67
2022/03/15 11:30:42;;;;;;;3.88;2.05;;;9.70;95.20;;;;;;6280247;22;20031;-66
2022/03/15 11:33:10;;;;;;;5.00;2.00;;;9.60;95.30;;;;;;6280826;22;20000;-67
2022/03/15 11:35:38;;;;;;;3.83;2.30;;;9.60;95.90;;;;;;6280516;22;19995;-67
2022/03/15 11:38:09;;;;;;;5.07;2.17;;;9.50;96.00;;;;;;6280654;22;20027;-65
2022/03/15 11:40:36;;;;;;;3.80;1.90;;;9.30;96.00;;;;;;6279233;22;20076;-67
2022/03/15 11:43:26;;;;;;;5.90;2.05;;;9.20;96.10;;;;;;6280507;22;20070;-66
2022/03/15 11:46:00;;;;;;;6.45;2.20;;;9.20;96.30;;;;;;6280486;22;20004;-67
2022/03/15 11:49:03;;;;;;;3.92;1.80;;;9.10;96.50;;;;;;6280828;22;20004;-65
2022/03/15 11:51:51;;;;;;;5.00;2.35;;;9.00;96.90;;;;;;6154553;22;20007;-66
2022/03/15 11:54:30;;;;;;;3.60;1.95;;;8.90;97.00;;;;;;6279049;22;20349;-67
2022/03/15 11:57:21;;;;;;;4.20;2.17;;;8.80;97.00;;;;;;6280375;22;20004;-69
2022/03/15 11:59:52;;;;;;;4.95;2.10;;;8.70;97.30;;;;;;6253337;22;20008;-67
2022/03/15 12:02:27;;;;;;;6.03;2.40;;;8.60;97.40;;;;;;6280628;22;20076;-67
2022/03/15 12:04:54;;;;;;;5.80;2.50;;;8.50;97.30;;;;;;6280531;22;20003;-67
2022/03/15 12:07:46;;;;;;;4.18;2.28;;;8.50;97.50;;;;;;6280275;22;19999;-66
2022/03/15 12:10:27;;;;;;;9.88;2.65;;;8.40;97.70;;;;;;6278879;22;20346;-66
2022/03/15 12:13:04;;;;;;;4.05;2.50;;;8.30;97.20;;;;;;6280515;22;20000;-66
2022/03/15 12:15:38;;;;;;;4.60;2.28;;;8.20;97.30;;;;;;6280413;22;19996;-68
2022/03/15 12:21:08;;;;;;;6.43;2.65;;;8.20;97.50;;;;;;6290773;22;20042;-66
2022/03/15 12:23:50;;;;;;;7.38;2.42;;;8.20;97.40;;;;;;6280297;22;20004;-66
2022/03/15 12:26:34;;;;;;;4.43;2.55;;;8.20;97.40;;;;;;6280396;22;20246;-66
2022/03/15 12:29:04;;;;;;;5.30;2.60;;;8.20;97.90;;;;;;6280201;22;20010;-67
2022/03/15 12:31:36;;;;;;;6.05;2.90;;;8.20;97.90;;;;;;6280118;22;20070;-66
2022/03/15 12:34:08;;;;;;;5.60;2.35;;;8.30;97.90;;;;;;6280302;22;19996;-66
2022/03/15 12:36:48;;;;;;;6.70;2.40;;;8.30;98.00;;;;;;6280345;22;19995;-66
2022/03/15 12:39:17;;;;;;;7.50;2.63;;;8.40;97.60;;;;;;6278521;22;20003;-67
2022/03/15 12:41:44;;;;;;;4.43;2.33;;;8.40;97.60;;;;;;6280404;22;19996;-66
2022/03/15 12:44:10;;;;;;;6.18;2.45;;;8.40;97.80;;;;;;6280025;22;20003;-67
2022/03/15 12:46:41;;;;;;;5.43;2.55;;;8.40;97.60;;;;;;6280248;22;20243;-65
2022/03/15 12:49:09;;;;;;;6.05;2.70;;;8.40;97.30;;;;;;6280202;22;19999;-66
2022/03/15 12:51:37;;;;;;;5.53;2.40;;;8.40;97.40;;;;;;6280212;22;20010;-66
2022/03/15 12:54:10;;;;;;;5.30;2.30;;;8.50;97.60;;;;;;6278625;22;20000;-66
2022/03/15 12:56:47;;;;;;;6.45;2.28;;;8.50;97.40;;;;;;6280289;22;20433;-65
2022/03/15 12:59:26;;;;;;;5.82;2.47;;;8.60;97.40;;;;;;6253200;22;20271;-66
2022/03/15 13:01:52;;;;;;;6.68;2.05;;;8.70;96.90;;;;;;6280272;22;20004;-67